Time;durP1;ratioP1;P1;durP2;ratioP2;P2;SDS_P1;SDS_P2;PMS_P1;PMS_P2;Temp;Humidity;BMP_temperature;BMP_pressure;BME280_temperature;BME280_humidity;BME280_pressure;Samples;Min_cycle;Max_cycle;Signal;HPM_P1;HPM_P2
2022/05/21 00:01:46;;;;;;;2.05;1.45;;;;;;;23.42;46.97;101124.00;5028041;28;20120;-61
2022/05/21 00:04:14;;;;;;;2.55;1.40;;;;;;;23.42;47.48;101134.53;4998670;28;20489;-62
2022/05/21 00:06:40;;;;;;;1.35;1.25;;;;;;;23.42;46.87;101145.94;4996566;28;20548;-61
2022/05/21 00:09:12;;;;;;;1.70;1.60;;;;;;;23.42;46.73;101145.94;5013562;28;20386;-61
2022/05/21 00:11:39;;;;;;;3.80;1.65;;;;;;;23.43;46.88;101152.94;5012598;28;20037;-61
2022/05/21 00:14:08;;;;;;;2.95;2.58;;;;;;;23.36;47.08;101150.28;5032524;28;20107;-63
2022/05/21 00:16:33;;;;;;;1.88;1.40;;;;;;;23.43;46.93;101167.81;5034541;28;20041;-61
2022/05/21 00:18:59;;;;;;;1.83;1.65;;;;;;;23.44;47.21;101172.22;5015125;28;20036;-60
2022/05/21 00:21:26;;;;;;;1.63;1.52;;;;;;;23.43;46.94;101167.81;5011964;28;20037;-61
2022/05/21 00:23:52;;;;;;;1.58;1.48;;;;;;;23.44;46.63;101174.84;5014084;28;20041;-63
2022/05/21 00:26:18;;;;;;;4.22;1.60;;;;;;;23.42;46.70;101176.56;5012439;28;20032;-61
2022/05/21 00:28:45;;;;;;;1.73;1.63;;;;;;;23.37;46.95;101179.22;4996977;28;20034;-61
2022/05/21 00:31:12;;;;;;;3.25;1.65;;;;;;;23.42;46.75;101176.56;5013612;28;20570;-62
2022/05/21 00:33:40;;;;;;;1.75;1.65;;;;;;;23.41;46.69;101195.84;5011057;28;20514;-61
2022/05/21 00:36:07;;;;;;;2.60;1.50;;;;;;;23.40;46.62;101195.00;5013648;28;20560;-61
2022/05/21 00:38:34;;;;;;;2.55;1.75;;;;;;;23.40;46.93;101200.25;5011240;28;20033;-62
2022/05/21 00:40:59;;;;;;;3.40;1.98;;;;;;;23.39;46.46;101205.47;5013898;28;20057;-61
2022/05/21 00:43:42;;;;;;;3.35;2.20;;;;;;;23.39;46.07;101208.09;5031767;28;20029;-62
2022/05/21 00:46:17;;;;;;;3.40;1.73;;;;;;;23.39;46.87;101197.59;5011181;28;20046;-61
2022/05/21 00:48:50;;;;;;;2.50;1.10;;;;;;;23.40;46.63;101204.59;5011438;28;20030;-61
2022/05/21 00:51:20;;;;;;;1.67;1.55;;;;;;;23.39;46.62;101206.38;4997449;28;20110;-60
2022/05/21 00:53:50;;;;;;;2.53;1.75;;;;;;;23.39;46.46;101208.09;4997220;28;20069;-60
2022/05/21 00:56:16;;;;;;;1.70;1.35;;;;;;;23.40;46.67;101209.88;5012955;28;20053;-61
2022/05/21 01:01:28;;;;;;;2.45;1.20;;;;;;;23.41;46.43;101216.88;5014595;28;20087;-61
2022/05/21 01:03:59;;;;;;;1.52;1.38;;;;;;;23.40;45.77;101225.63;4997333;28;20040;-61
2022/05/21 01:06:24;;;;;;;1.42;1.33;;;;;;;23.39;46.25;101224.78;5011379;28;20038;-61
2022/05/21 01:08:49;;;;;;;1.30;1.23;;;;;;;23.40;46.33;101217.75;5012613;28;20042;-61
2022/05/21 01:11:17;;;;;;;2.13;1.70;;;;;;;23.36;46.24;101226.50;5030346;28;20037;-60
2022/05/21 01:13:46;;;;;;;4.68;1.55;;;;;;;23.39;46.16;101237.91;4997676;28;20026;-61
2022/05/21 01:16:15;;;;;;;4.20;1.60;;;;;;;23.38;45.97;101228.28;4995479;28;20418;-62
2022/05/21 01:18:43;;;;;;;1.48;1.40;;;;;;;23.38;46.01;101232.63;5015559;28;20127;-61
2022/05/21 01:21:11;;;;;;;2.58;1.27;;;;;;;23.37;45.98;101226.50;5001194;28;20033;-60
2022/05/21 01:23:36;;;;;;;1.60;1.45;;;;;;;23.37;46.05;101237.03;4997553;28;20386;-61
2022/05/21 01:26:07;;;;;;;5.53;1.33;;;;;;;23.39;45.75;101239.66;4997596;28;20029;-63
2022/05/21 01:28:33;;;;;;;1.00;1.00;;;;;;;23.40;46.40;101246.66;5013191;28;20037;-61
2022/05/21 01:31:01;;;;;;;1.80;1.20;;;;;;;23.38;45.61;101249.31;4995937;28;20040;-64
2022/05/21 01:33:29;;;;;;;1.45;1.35;;;;;;;23.39;45.75;101258.03;5013500;28;20132;-61
2022/05/21 01:35:58;;;;;;;1.35;1.25;;;;;;;23.39;45.90;101255.41;4998199;28;20037;-61
2022/05/21 01:38:25;;;;;;;1.58;1.30;;;;;;;23.39;45.69;101260.66;4998753;28;20068;-61
2022/05/21 01:40:50;;;;;;;1.17;1.08;;;;;;;23.38;45.61;101264.16;5015453;28;20552;-63
2022/05/21 01:46:03;;;;;;;1.10;0.88;;;;;;;23.33;45.45;101262.41;5016399;28;20079;-60
2022/05/21 01:48:36;;;;;;;2.80;1.15;;;;;;;23.38;45.59;101274.69;5013765;28;20053;-61
2022/05/21 01:51:06;;;;;;;1.23;1.13;;;;;;;23.37;45.74;101284.34;5013940;28;20175;-63
2022/05/21 01:53:36;;;;;;;3.22;1.17;;;;;;;23.39;45.23;101286.97;4997496;28;20119;-64
2022/05/21 01:56:03;;;;;;;6.75;1.25;;;;;;;23.33;45.60;101278.16;5000889;28;20454;-62
2022/05/21 01:58:29;;;;;;;1.33;1.10;;;;;;;23.38;45.57;101285.19;5001984;28;20106;-61
2022/05/21 02:00:59;;;;;;;2.50;1.60;;;;;;;23.36;45.05;101281.69;5017762;28;20060;-61
2022/05/21 02:03:25;;;;;;;1.48;1.38;;;;;;;23.38;45.20;101285.19;5004644;28;20034;-60
2022/05/21 02:05:51;;;;;;;1.92;1.48;;;;;;;23.36;45.05;101286.94;5006447;28;20037;-66
2022/05/21 02:08:22;;;;;;;3.20;1.55;;;;;;;23.37;45.15;101293.94;5032030;28;20079;-63
2022/05/21 02:10:51;;;;;;;1.38;1.27;;;;;;;23.37;44.97;101305.34;4997394;28;20498;-61
2022/05/21 02:13:25;;;;;;;1.90;1.40;;;;;;;23.37;45.19;101299.22;5005251;28;20159;-61
2022/05/21 02:15:54;;;;;;;1.38;1.27;;;;;;;23.36;45.06;101302.72;5001438;28;20486;-61
2022/05/21 02:18:22;;;;;;;1.38;1.17;;;;;;;23.36;45.03;101305.34;5000782;28;20052;-60
2022/05/21 02:20:48;;;;;;;1.30;1.20;;;;;;;23.34;45.05;101311.47;5016593;28;20156;-61
2022/05/21 02:23:13;;;;;;;1.25;1.15;;;;;;;23.36;45.48;101307.97;5005650;28;20124;-61
2022/05/21 02:25:39;;;;;;;0.98;0.98;;;;;;;23.36;45.06;101307.97;4999707;28;20037;-62
2022/05/21 02:28:08;;;;;;;2.20;1.17;;;;;;;23.30;44.87;101299.16;5014171;28;20124;-61
2022/05/21 02:30:34;;;;;;;1.20;1.08;;;;;;;23.31;44.69;101305.28;5014933;28;20029;-61
2022/05/21 02:32:59;;;;;;;1.25;1.02;;;;;;;23.33;45.25;101304.44;5014437;28;20390;-62
2022/05/21 02:35:24;;;;;;;2.08;1.23;;;;;;;23.34;44.73;101311.47;5016575;28;20535;-61
2022/05/21 02:40:39;;;;;;;0.83;0.83;;;;;;;23.36;44.97;101313.22;5018918;28;20040;-62
2022/05/21 02:43:04;;;;;;;1.45;1.35;;;;;;;23.36;45.10;101307.97;5000410;28;20033;-61
2022/05/21 02:45:34;;;;;;;1.08;0.88;;;;;;;23.34;44.79;101306.19;5014026;28;20057;-61
2022/05/21 02:48:00;;;;;;;4.32;1.55;;;;;;;23.36;44.55;101313.22;5016802;28;20033;-61
2022/05/21 02:50:33;;;;;;;1.00;0.85;;;;;;;23.35;44.61;101307.09;5016783;28;20051;-61
2022/05/21 02:53:03;;;;;;;4.03;1.10;;;;;;;23.36;44.43;101307.97;5000960;28;20042;-60
2022/05/21 02:55:30;;;;;;;1.33;1.23;;;;;;;23.37;44.54;101312.34;5018197;28;20530;-61
2022/05/21 02:58:00;;;;;;;1.73;1.13;;;;;;;23.36;44.60;101307.97;5016537;28;20048;-61
2022/05/21 03:00:29;;;;;;;0.90;0.90;;;;;;;23.34;44.57;101311.47;5016236;28;20037;-61
2022/05/21 03:02:55;;;;;;;2.97;1.35;;;;;;;23.29;44.34;101294.78;4999916;28;20379;-61
2022/05/21 03:05:21;;;;;;;1.60;1.23;;;;;;;23.34;44.77;101308.84;5017291;28;20485;-61
2022/05/21 03:07:51;;;;;;;1.40;1.00;;;;;;;23.36;44.93;101313.22;5031309;28;20037;-61
2022/05/21 03:10:21;;;;;;;1.73;1.63;;;;;;;23.36;44.99;101313.22;4999391;28;20045;-63
2022/05/21 03:12:58;;;;;;;3.45;1.63;;;;;;;23.34;44.92;101311.47;5014863;28;20041;-62
2022/05/21 03:15:33;;;;;;;1.10;1.05;;;;;;;23.34;44.67;101311.47;5013116;28;20041;-61
2022/05/21 03:18:04;;;;;;;2.60;1.50;;;;;;;23.37;44.25;101314.97;4999206;28;20085;-61
2022/05/21 03:20:30;;;;;;;1.45;1.35;;;;;;;23.36;45.05;101313.22;5015636;28;20025;-64
2022/05/21 03:22:57;;;;;;;1.20;1.10;;;;;;;23.36;44.81;101307.97;5032486;28;20076;-61
2022/05/21 03:25:27;;;;;;;1.42;1.30;;;;;;;23.33;44.18;101309.69;5016635;28;20029;-61
2022/05/21 03:27:53;;;;;;;1.38;1.27;;;;;;;23.33;44.14;101309.69;5015560;28;20154;-62
2022/05/21 03:30:25;;;;;;;0.98;0.90;;;;;;;23.34;44.37;101306.19;5015652;28;20056;-61
2022/05/21 03:32:53;;;;;;;1.75;1.08;;;;;;;23.34;44.56;101300.94;4998003;28;20044;-64
2022/05/21 03:35:21;;;;;;;2.75;1.35;;;;;;;23.30;44.42;101304.44;4999660;28;20033;-62
2022/05/21 03:37:51;;;;;;;2.55;1.77;;;;;;;23.33;44.84;101314.97;5016126;28;20124;-61
2022/05/21 03:40:27;;;;;;;1.63;1.15;;;;;;;23.35;44.38;101299.22;5012003;28;20039;-62
2022/05/21 03:42:52;;;;;;;1.15;1.05;;;;;;;23.33;44.51;101301.81;4997621;28;20052;-61
2022/05/21 03:45:20;;;;;;;0.80;0.80;;;;;;;23.34;44.49;101300.94;5014562;28;20096;-61
2022/05/21 03:47:46;;;;;;;1.63;1.30;;;;;;;23.29;44.15;101286.91;5012469;28;20437;-61
2022/05/21 03:50:20;;;;;;;1.30;1.20;;;;;;;23.34;44.21;101290.44;5011437;28;20025;-66
2022/05/21 03:52:50;;;;;;;3.50;2.03;;;;;;;23.34;44.47;101295.69;5029121;28;20184;-61
2022/05/21 03:55:15;;;;;;;1.02;1.02;;;;;;;23.34;44.49;101295.69;4996492;28;20111;-60
2022/05/21 03:57:43;;;;;;;1.17;1.15;;;;;;;23.35;44.50;101291.34;5015963;28;20057;-62
2022/05/21 04:00:11;;;;;;;1.50;1.40;;;;;;;23.36;43.84;101302.72;5015336;28;20029;-65
2022/05/21 04:02:37;;;;;;;1.40;1.25;;;;;;;23.34;44.39;101306.19;5006766;28;20033;-61
2022/05/21 04:05:06;;;;;;;1.30;1.20;;;;;;;23.34;43.89;101305.34;4998681;28;20035;-67
2022/05/21 04:07:32;;;;;;;3.60;1.58;;;;;;;23.34;44.12;101311.47;5013569;28;20077;-61
2022/05/21 04:09:57;;;;;;;3.58;1.30;;;;;;;23.34;44.18;101311.47;5012844;28;20084;-62
2022/05/21 04:12:22;;;;;;;1.33;1.23;;;;;;;23.34;43.67;101316.72;5013542;28;20079;-62
2022/05/21 04:14:51;;;;;;;1.17;1.10;;;;;;;23.34;44.62;101307.97;5030225;28;20037;-61
2022/05/21 04:17:16;;;;;;;1.20;1.10;;;;;;;23.33;44.37;101291.31;5013944;28;20033;-61
2022/05/21 04:19:45;;;;;;;2.55;1.17;;;;;;;23.34;43.73;101293.06;5027454;28;20493;-61
2022/05/21 04:22:10;;;;;;;3.90;1.35;;;;;;;23.33;44.28;101299.19;5030307;28;20029;-61
2022/05/21 04:24:39;;;;;;;0.80;0.80;;;;;;;23.34;44.07;101287.81;5012592;28;20117;-62
2022/05/21 04:27:10;;;;;;;1.05;1.00;;;;;;;23.34;44.10;101290.44;5032957;28;20033;-61
2022/05/21 04:29:40;;;;;;;1.55;1.33;;;;;;;23.32;43.97;101281.66;5015589;28;20389;-63
2022/05/21 04:32:06;;;;;;;1.70;1.60;;;;;;;23.33;43.85;101288.69;4995095;28;20037;-61
2022/05/21 04:34:33;;;;;;;0.93;0.93;;;;;;;23.36;43.81;101286.94;5015364;28;20080;-64
2022/05/21 04:37:01;;;;;;;1.00;0.93;;;;;;;23.34;44.20;101276.44;5014367;28;20096;-61
2022/05/21 04:39:29;;;;;;;0.98;0.98;;;;;;;23.35;43.70;101280.81;5028963;28;20520;-61
2022/05/21 04:41:55;;;;;;;2.50;1.00;;;;;;;23.33;43.62;101283.41;5014186;28;20040;-62
2022/05/21 04:44:23;;;;;;;0.90;0.85;;;;;;;23.33;44.18;101278.16;5032325;28;20026;-61
2022/05/21 04:46:49;;;;;;;1.20;1.10;;;;;;;23.29;43.60;101271.13;5017713;28;20043;-61
2022/05/21 04:49:14;;;;;;;1.00;1.00;;;;;;;23.31;43.82;101274.66;5014458;28;20025;-61
2022/05/21 04:51:39;;;;;;;1.20;1.10;;;;;;;23.33;43.67;101277.31;5030612;28;20065;-64
2022/05/21 04:54:05;;;;;;;2.58;1.40;;;;;;;23.30;43.60;101257.13;5029665;28;20048;-61
2022/05/21 04:56:34;;;;;;;0.80;0.80;;;;;;;23.34;43.48;101271.19;4991849;28;20128;-61
2022/05/21 04:59:04;;;;;;;2.13;1.30;;;;;;;23.33;43.24;101272.91;4993107;28;20044;-61
2022/05/21 05:01:30;;;;;;;1.27;1.17;;;;;;;23.33;43.95;101267.66;4994840;28;20666;-61
2022/05/21 05:04:00;;;;;;;1.98;1.33;;;;;;;23.34;43.52;101263.28;5010559;28;20037;-62
2022/05/21 05:06:29;;;;;;;3.40;1.58;;;;;;;23.34;43.70;101274.66;5015282;28;20041;-61
2022/05/21 05:08:56;;;;;;;1.38;1.33;;;;;;;23.34;43.57;101269.41;4996965;28;20037;-63
2022/05/21 05:11:24;;;;;;;1.25;1.15;;;;;;;23.34;43.53;101266.78;5014726;28;20035;-61
2022/05/21 05:13:52;;;;;;;1.75;1.45;;;;;;;23.30;44.10;101257.13;4997205;28;20103;-61
2022/05/21 05:16:17;;;;;;;1.30;1.25;;;;;;;23.34;43.56;101263.28;5006356;28;20112;-61
2022/05/21 05:18:45;;;;;;;5.15;1.50;;;;;;;23.32;43.95;101255.38;5013142;28;20453;-63
2022/05/21 05:21:13;;;;;;;1.60;1.23;;;;;;;23.33;43.59;101269.41;5009833;28;20528;-61
2022/05/21 05:23:38;;;;;;;1.83;1.67;;;;;;;23.31;43.70;101258.88;5013369;28;20042;-61
2022/05/21 05:26:04;;;;;;;1.63;1.50;;;;;;;23.32;43.58;101254.50;5023176;28;20680;-61
2022/05/21 05:28:29;;;;;;;7.60;1.63;;;;;;;23.32;43.90;101258.00;5031000;28;20037;-62
2022/05/21 05:30:57;;;;;;;2.10;1.52;;;;;;;23.32;43.80;101260.63;5031315;28;20485;-61
2022/05/21 05:33:30;;;;;;;2.33;1.65;;;;;;;23.32;43.36;101250.13;5013935;28;20356;-61
2022/05/21 05:35:58;;;;;;;1.55;1.45;;;;;;;23.33;43.42;101235.25;4993999;28;20021;-62
2022/05/21 05:38:27;;;;;;;3.97;1.60;;;;;;;23.34;44.04;101258.91;4994067;28;20367;-62
2022/05/21 05:40:56;;;;;;;1.73;1.63;;;;;;;23.36;43.88;101260.66;5012742;28;20037;-63
2022/05/21 05:43:22;;;;;;;1.83;1.73;;;;;;;23.29;43.59;101250.09;4997920;28;20060;-62
2022/05/21 05:45:48;;;;;;;1.65;1.55;;;;;;;23.34;43.48;101258.91;4995765;28;21277;-62
2022/05/21 05:48:19;;;;;;;4.20;1.83;;;;;;;23.32;43.63;101255.38;5021064;28;20467;-62
2022/05/21 05:50:45;;;;;;;10.15;2.90;;;;;;;23.27;42.94;101257.09;5005505;28;20044;-61
2022/05/21 05:53:10;;;;;;;2.40;2.05;;;;;;;23.11;42.70;101260.47;5021426;28;20036;-62
2022/05/21 05:55:38;;;;;;;3.10;2.80;;;;;;;23.05;43.11;101259.56;5013351;28;20034;-62
2022/05/21 05:59:48;;;;;;;2.50;2.30;;;;;;;23.03;43.24;101258.66;5023938;28;20033;-62
2022/05/21 06:00:52;;;;;;;4.80;2.90;;;;;;;23.07;43.15;101254.28;5016390;28;20546;-65
2022/05/21 06:03:19;;;;;;;3.05;2.13;;;;;;;23.09;43.38;101249.06;5013945;28;20103;-60
2022/05/21 06:05:49;;;;;;;2.72;2.53;;;;;;;23.07;43.56;101245.56;5009932;28;20546;-61
2022/05/21 06:08:16;;;;;;;7.47;2.97;;;;;;;22.96;43.42;101246.34;5014041;28;20033;-61
2022/05/21 06:10:43;;;;;;;3.78;3.22;;;;;;;23.05;43.68;101262.19;5013372;28;20044;-61
2022/05/21 06:13:09;;;;;;;7.68;2.75;;;;;;;23.04;43.43;101252.53;4997933;28;20535;-60
2022/05/21 06:15:35;;;;;;;2.72;2.20;;;;;;;23.10;43.58;101253.47;5012072;28;20037;-62
2022/05/21 06:18:12;;;;;;;3.72;2.50;;;;;;;23.14;43.86;101244.72;5010096;28;20385;-65
2022/05/21 06:20:38;;;;;;;3.72;2.40;;;;;;;23.25;43.79;101253.59;5006535;28;20125;-62
2022/05/21 06:23:03;;;;;;;5.78;2.17;;;;;;;23.30;44.15;101245.72;5012334;28;20483;-60
2022/05/21 06:25:33;;;;;;;4.63;2.08;;;;;;;23.34;43.73;101242.28;5010239;28;20124;-63
2022/05/21 06:27:59;;;;;;;5.97;1.73;;;;;;;23.40;43.72;101247.56;5022801;28;20174;-61
2022/05/21 06:30:26;;;;;;;9.93;2.58;;;;;;;23.44;43.19;101248.44;5005000;28;20770;-64
2022/05/21 06:32:53;;;;;;;2.28;2.05;;;;;;;23.47;43.74;101248.44;4995743;28;20068;-67
2022/05/21 06:35:19;;;;;;;3.38;1.77;;;;;;;23.48;43.76;101245.84;5005815;28;20125;-68
2022/05/21 06:37:47;;;;;;;3.85;1.48;;;;;;;23.52;44.27;101241.47;5007427;28;20133;-69
2022/05/21 06:40:14;;;;;;;1.90;1.80;;;;;;;23.49;43.56;101244.06;5023882;28;20030;-68
2022/05/21 06:42:40;;;;;;;1.90;1.58;;;;;;;23.51;43.50;101244.97;5016986;28;20025;-68
2022/05/21 06:45:06;;;;;;;2.10;1.95;;;;;;;23.54;43.59;101239.72;4992194;28;20040;-68
2022/05/21 06:47:34;;;;;;;3.25;2.10;;;;;;;23.56;43.94;101243.22;5010573;28;20044;-58
2022/05/21 06:50:05;;;;;;;8.88;2.45;;;;;;;23.42;43.77;101240.56;4995456;28;20037;-57
2022/05/21 06:52:32;;;;;;;2.65;2.13;;;;;;;23.38;44.47;101243.16;5000572;28;20122;-63
2022/05/21 06:54:57;;;;;;;2.60;2.40;;;;;;;23.39;44.41;101244.91;5006729;28;20056;-69
2022/05/21 06:57:26;;;;;;;4.10;2.90;;;;;;;23.38;44.79;101243.16;5013962;28;20447;-54
2022/05/21 06:59:52;;;;;;;3.28;2.10;;;;;;;23.37;45.09;101241.38;4998810;28;20060;-54
2022/05/21 07:02:17;;;;;;;2.45;2.25;;;;;;;23.39;45.45;101239.66;5014947;28;20104;-55
2022/05/21 07:07:33;;;;;;;3.00;2.33;;;;;;;23.43;44.78;101236.16;5033820;28;20029;-61
2022/05/21 07:10:00;;;;;;;3.15;2.35;;;;;;;23.47;45.06;101237.94;5011154;28;20495;-51
2022/05/21 07:15:49;;;;;;;2.85;2.58;;;;;;;23.53;45.62;101242.34;5036519;28;20099;-55
2022/05/21 07:18:16;;;;;;;7.18;3.25;;;;;;;23.46;45.04;101246.69;5015161;28;20025;-52
2022/05/21 07:20:42;;;;;;;4.97;2.95;;;;;;;23.46;45.46;101237.06;5016574;28;20033;-50
2022/05/21 07:23:07;;;;;;;14.43;2.95;;;;;;;23.59;46.45;101240.63;5016245;28;20400;-62
2022/05/21 07:25:33;;;;;;;6.68;2.70;;;;;;;23.57;45.60;101238.88;4992801;28;20462;-65
2022/05/21 07:28:01;;;;;;;8.18;3.22;;;;;;;23.37;45.88;101244.91;5031500;28;20509;-65
2022/05/21 07:30:28;;;;;;;5.00;3.05;;;;;;;23.30;46.46;101251.88;4999970;28;20086;-65
2022/05/21 07:32:56;;;;;;;6.40;3.47;;;;;;;23.38;46.74;101245.78;5011941;28;20026;-65
2022/05/21 07:35:23;;;;;;;3.40;3.17;;;;;;;23.32;46.26;101234.34;5010057;28;20371;-63
2022/05/21 07:37:50;;;;;;;7.30;3.50;;;;;;;23.27;46.29;101237.81;4995281;28;20116;-63
2022/05/21 07:40:17;;;;;;;3.33;2.60;;;;;;;23.16;46.50;101232.47;4997389;28;20037;-67
2022/05/21 07:42:42;;;;;;;7.78;3.00;;;;;;;23.19;46.37;101235.13;5012936;28;20032;-62
2022/05/21 07:45:09;;;;;;;4.75;2.95;;;;;;;23.20;46.23;101234.25;5014124;28;20030;-62
2022/05/21 07:47:34;;;;;;;4.82;3.25;;;;;;;23.17;46.38;101223.72;5016310;28;20033;-68
2022/05/21 07:50:00;;;;;;;5.13;3.17;;;;;;;23.03;46.16;101216.63;4996200;28;20025;-63
2022/05/21 07:52:27;;;;;;;6.13;3.72;;;;;;;23.23;46.12;101244.78;5013086;28;20037;-63
2022/05/21 07:54:53;;;;;;;2.63;2.30;;;;;;;23.14;46.48;101244.72;5076169;23;20053;-58
2022/05/21 07:57:19;;;;;;;6.13;2.55;;;;;;;23.10;46.07;101228.03;5031671;28;20494;-60
2022/05/21 07:59:44;;;;;;;3.00;2.75;;;;;;;23.22;46.06;101227.25;5033713;28;20064;-60
2022/05/21 08:02:15;;;;;;;4.80;2.40;;;;;;;23.20;46.00;101229.00;5012678;28;20021;-59
2022/05/21 08:04:44;;;;;;;8.55;3.85;;;;;;;23.13;46.29;101232.47;5018326;28;20123;-58
2022/05/21 08:07:10;;;;;;;4.25;2.90;;;;;;;23.09;46.17;101236.78;5022333;28;20032;-59
2022/05/21 08:09:36;;;;;;;7.47;3.20;;;;;;;23.06;46.06;101231.53;5031363;28;20300;-59
2022/05/21 08:12:05;;;;;;;11.45;3.00;;;;;;;23.04;46.24;101239.41;5014722;28;20488;-59
2022/05/21 08:14:31;;;;;;;5.15;3.10;;;;;;;23.04;46.12;101244.66;5014632;28;20116;-59
2022/05/21 08:16:57;;;;;;;6.85;3.22;;;;;;;23.03;46.03;101242.91;5014076;28;20048;-59
2022/05/21 08:19:22;;;;;;;5.88;3.05;;;;;;;23.00;46.09;101242.88;5012159;28;20033;-59
2022/05/21 08:21:50;;;;;;;2.75;2.55;;;;;;;23.03;46.20;101237.66;5028710;28;20025;-59
2022/05/21 08:27:02;;;;;;;5.15;2.95;;;;;;;22.92;46.22;101197.31;5026305;28;20072;-59
2022/05/21 08:29:33;;;;;;;6.97;2.35;;;;;;;22.99;45.88;101229.72;5033143;28;20053;-59
2022/05/21 08:32:00;;;;;;;4.38;2.70;;;;;;;22.94;46.06;101258.59;5028265;28;20037;-60
2022/05/21 08:34:29;;;;;;;4.25;2.65;;;;;;;22.94;46.51;101263.84;5021357;28;20094;-61
2022/05/21 08:36:54;;;;;;;4.47;2.72;;;;;;;22.94;46.31;101253.34;5047195;28;20073;-63
2022/05/21 08:39:21;;;;;;;7.38;2.45;;;;;;;22.96;46.25;101261.22;5016942;28;20068;-59
2022/05/21 08:41:53;;;;;;;2.35;2.13;;;;;;;23.00;45.97;101258.66;5017559;28;20399;-60
2022/05/21 08:44:38;;;;;;;3.90;2.85;;;;;;;23.01;46.04;101268.28;5031133;28;20064;-60
2022/05/21 08:47:22;;;;;;;;;;;;;;;23.03;46.14;101266.56;5018175;28;20123;-59
2022/05/21 08:50:15;;;;;;;6.38;2.70;;;;;;;23.02;45.95;101270.03;5045759;28;19924;-60
2022/05/21 08:52:49;;;;;;;1.70;1.60;;;;;;;23.04;46.38;101265.69;5033889;28;20049;-60
2022/05/21 08:55:19;;;;;;;2.10;1.85;;;;;;;23.07;45.90;101269.19;5014279;28;20458;-59
2022/05/21 08:57:47;;;;;;;7.20;1.95;;;;;;;23.08;46.29;101266.56;5032298;28;20462;-59
2022/05/21 09:00:25;;;;;;;3.55;1.80;;;;;;;23.08;46.30;101276.22;5025239;28;20457;-62
2022/05/21 09:02:52;;;;;;;3.42;2.05;;;;;;;23.04;46.08;101270.03;5023611;28;20370;-60
2022/05/21 09:05:21;;;;;;;3.45;1.92;;;;;;;23.00;46.15;101286.66;5013624;28;20035;-59
2022/05/21 09:08:27;;;;;;;1.60;1.50;;;;;;;23.01;45.93;101291.94;5016777;28;20056;-63
2022/05/21 09:10:52;;;;;;;;;;;;;;;23.02;45.71;101298.94;4971773;28;20054;-61
2022/05/21 09:13:44;;;;;;;1.97;1.77;;;;;;;23.02;45.94;101298.94;5021297;28;20427;-61
2022/05/21 09:19:05;;;;;;;1.92;1.58;;;;;;;23.03;45.91;101284.94;5037722;28;20044;-61
2022/05/21 09:21:32;;;;;;;3.00;2.15;;;;;;;23.20;46.11;101292.94;5005110;28;20037;-60
2022/05/21 09:24:02;;;;;;;6.78;2.30;;;;;;;23.31;45.87;101290.41;5024780;28;20040;-62
2022/05/21 09:26:44;;;;;;;2.78;1.83;;;;;;;23.38;45.27;101300.97;5014941;28;20025;-61
2022/05/21 09:29:16;;;;;;;1.88;1.77;;;;;;;23.42;45.55;101300.13;5046587;28;20098;-60
2022/05/21 09:31:42;;;;;;;1.77;1.52;;;;;;;23.43;45.46;101307.13;5036612;28;20044;-61
2022/05/21 09:34:31;;;;;;;3.78;1.52;;;;;;;23.44;45.21;101301.91;5050330;28;20033;-60
2022/05/21 09:36:58;;;;;;;1.85;1.65;;;;;;;23.43;45.55;101307.13;5044785;28;20033;-60
2022/05/21 09:39:38;;;;;;;4.15;1.77;;;;;;;23.41;46.00;101312.41;5015697;28;20025;-65
2022/05/21 09:45:23;;;;;;;5.70;1.88;;;;;;;23.47;45.66;101319.44;5044909;28;21759;-61
2022/05/21 09:47:52;;;;;;;;;;;;;;;23.48;44.94;101323.81;5045224;28;20469;-60
2022/05/21 09:50:24;;;;;;;1.48;1.38;;;;;;;23.50;45.23;101316.81;5033330;28;19917;-60
2022/05/21 09:52:53;;;;;;;1.67;1.58;;;;;;;23.44;45.89;101328.19;5037592;28;20041;-61
2022/05/21 09:55:27;;;;;;;1.88;1.17;;;;;;;23.48;45.84;101326.44;5006608;28;20033;-60
2022/05/21 09:57:54;;;;;;;9.07;1.60;;;;;;;23.47;45.84;101319.44;5016969;28;20033;-60
2022/05/21 10:00:24;;;;;;;1.35;1.25;;;;;;;23.46;45.36;101325.56;5042032;28;20047;-60
2022/05/21 10:02:54;;;;;;;3.70;1.25;;;;;;;23.47;45.46;101324.69;5010512;28;20025;-59
2022/05/21 10:05:24;;;;;;;1.98;1.23;;;;;;;23.50;45.55;101337.84;5031687;28;20033;-60
2022/05/21 10:11:00;;;;;;;3.20;1.73;;;;;;;23.51;45.57;101331.72;5046321;28;20504;-61
2022/05/21 10:13:38;;;;;;;2.67;1.42;;;;;;;23.54;45.59;101342.25;5034934;28;20170;-61
2022/05/21 10:16:14;;;;;;;3.05;1.92;;;;;;;23.46;45.53;101320.28;5034939;28;20036;-60
2022/05/21 10:18:45;;;;;;;5.22;2.28;;;;;;;23.52;45.22;101351.03;5051279;28;20496;-60
2022/05/21 10:21:35;;;;;;;5.93;1.63;;;;;;;23.54;45.25;101355.41;5028142;28;20036;-60
2022/05/21 10:24:09;;;;;;;1.60;1.45;;;;;;;23.53;45.23;101374.66;5037012;28;20343;-56
2022/05/21 10:26:50;;;;;;;4.03;1.08;;;;;;;23.53;45.75;101393.06;5016752;28;20043;-57
2022/05/21 10:29:30;;;;;;;4.82;2.03;;;;;;;23.48;45.41;101369.41;5053928;28;20030;-53
2022/05/21 10:32:17;;;;;;;7.32;2.03;;;;;;;23.56;44.98;101374.69;5035345;28;20076;-60
2022/05/21 10:35:01;;;;;;;3.05;1.38;;;;;;;23.58;44.96;101375.59;5037510;28;20036;-60
2022/05/21 10:37:31;;;;;;;2.67;1.58;;;;;;;23.59;45.12;101372.09;5053778;28;20380;-63
2022/05/21 10:40:33;;;;;;;1.63;1.40;;;;;;;23.59;45.35;101374.72;5033639;28;20045;-59
2022/05/21 10:43:04;;;;;;;1.25;1.15;;;;;;;23.68;45.08;101378.28;5048654;28;20469;-58
2022/05/21 10:45:41;;;;;;;2.17;1.50;;;;;;;23.67;45.69;101389.66;5051380;28;20096;-59
2022/05/21 10:48:15;;;;;;;2.40;1.48;;;;;;;22.86;42.94;101402.09;5020435;28;20116;-56
2022/05/21 10:50:43;;;;;;;8.18;1.70;;;;;;;22.11;43.44;101406.44;5051706;28;20056;-58
2022/05/21 10:53:37;;;;;;;3.05;1.30;;;;;;;21.76;43.03;101404.19;5036261;28;20064;-59
2022/05/21 10:56:10;;;;;;;4.88;1.40;;;;;;;21.91;43.55;101400.03;5036886;28;20067;-58
2022/05/21 10:59:02;;;;;;;9.48;1.88;;;;;;;21.50;42.83;101393.25;5035524;28;20043;-57
2022/05/21 11:01:51;;;;;;;2.50;1.58;;;;;;;21.93;42.94;101379.94;5019945;28;20449;-55
2022/05/21 11:04:33;;;;;;;7.72;1.90;;;;;;;22.45;42.06;101391.13;5050087;28;20037;-59
2022/05/21 11:07:19;;;;;;;2.90;1.42;;;;;;;22.74;43.21;101393.19;5045687;28;20159;-55
2022/05/21 11:10:23;;;;;;;1.73;1.33;;;;;;;22.96;43.18;101403.97;5036264;28;20054;-55
2022/05/21 11:12:57;;;;;;;2.63;1.33;;;;;;;23.11;42.82;101402.34;5031355;28;20036;-60
2022/05/21 11:15:43;;;;;;;;;;;;;;;23.22;42.37;101402.41;5034866;28;20355;-57
2022/05/21 11:18:31;;;;;;;1.95;1.13;;;;;;;23.30;42.21;101403.41;5040743;28;19970;-56
2022/05/21 11:21:35;;;;;;;4.90;1.17;;;;;;;23.34;42.26;101416.59;5018513;28;20045;-59
2022/05/21 11:24:11;;;;;;;1.30;1.20;;;;;;;23.37;42.61;101404.34;5052981;28;20091;-58
2022/05/21 11:26:46;;;;;;;2.38;2.03;;;;;;;23.40;42.59;101401.75;5018190;28;20037;-59
2022/05/21 11:29:53;;;;;;;1.75;1.58;;;;;;;23.42;42.43;101413.16;5015673;28;20033;-55
2022/05/21 11:38:33;;;;;;;1.00;1.00;;;;;;;23.43;42.38;101415.81;5049123;28;20087;-59
2022/05/21 11:41:29;;;;;;;2.03;1.58;;;;;;;23.44;42.75;101432.44;5038073;28;20048;-58
2022/05/21 11:46:51;;;;;;;;;;;;;;;23.52;42.23;101436.00;5038969;28;20064;-57
2022/05/21 11:49:39;;;;;;;2.00;1.50;;;;;;;23.50;42.33;101440.38;5034999;28;19956;-59
2022/05/21 11:52:27;;;;;;;5.40;1.67;;;;;;;23.52;42.34;101436.00;5030185;28;20120;-57
2022/05/21 11:55:09;;;;;;;1.65;1.25;;;;;;;23.57;43.10;101455.31;5036036;28;20033;-56
2022/05/21 11:57:39;;;;;;;1.95;1.52;;;;;;;23.57;42.57;101444.81;5049430;28;20033;-56
2022/05/21 12:00:14;;;;;;;2.58;1.88;;;;;;;23.59;42.68;101437.81;5018263;28;20029;-60
2022/05/21 12:03:02;;;;;;;1.40;1.30;;;;;;;23.58;42.22;101450.97;5045328;28;20032;-58
2022/05/21 12:05:34;;;;;;;1.48;1.38;;;;;;;23.55;42.37;101462.31;5032832;28;20030;-56
2022/05/21 12:08:23;;;;;;;3.05;1.67;;;;;;;23.53;42.89;101464.06;5052640;28;20029;-58
2022/05/21 12:11:09;;;;;;;1.98;1.35;;;;;;;23.55;43.16;101467.59;5052039;28;20025;-57
2022/05/21 12:13:34;;;;;;;1.33;1.23;;;;;;;23.55;42.49;101461.47;5032980;28;20033;-56
2022/05/21 12:16:00;;;;;;;2.92;1.45;;;;;;;23.56;42.62;101464.09;5032898;28;20040;-56
2022/05/21 12:18:33;;;;;;;2.22;1.40;;;;;;;23.60;42.45;101455.34;5033697;28;20029;-57